Time;durP1;ratioP1;P1;durP2;ratioP2;P2;SDS_P1;SDS_P2;PMS_P1;PMS_P2;Temp;Humidity;BMP_temperature;BMP_pressure;BME280_temperature;BME280_humidity;BME280_pressure;Samples;Min_cycle;Max_cycle;Signal;HPM_P1;HPM_P2
2023/01/05 00:00:07;;;;;;;23.08;4.60;;;;;;;12.32;77.97;99486.41;4975062;28;20140;-79
2023/01/05 00:02:34;;;;;;;27.10;4.43;;;;;;;12.31;78.01;99486.53;4992244;28;20096;-79
2023/01/05 00:05:00;;;;;;;22.45;4.68;;;;;;;12.31;78.05;99495.28;4992371;28;20129;-79
2023/01/05 00:07:27;;;;;;;18.73;3.92;;;;;;;12.31;78.01;99475.97;4992430;28;20104;-79
2023/01/05 00:09:53;;;;;;;23.00;4.22;;;;;;;12.30;77.79;99475.09;4992326;28;20105;-78
2023/01/05 00:22:29;;;;;;;19.02;3.70;;;;;;;12.29;77.82;99478.69;4992337;28;20089;-78
2023/01/05 00:23:21;;;;;;;16.58;3.80;;;;;;;12.27;77.65;99491.19;4992245;28;20085;-79
2023/01/05 00:25:47;;;;;;;25.98;4.25;;;;;;;12.29;77.77;99485.78;4991984;28;20137;-79
2023/01/05 00:28:13;;;;;;;21.42;4.65;;;;;;;12.27;77.41;99496.44;4991827;28;20406;-79
2023/01/05 00:30:43;;;;;;;18.65;4.38;;;;;;;12.25;77.17;99488.63;4974471;28;20540;-79
2023/01/05 00:33:14;;;;;;;22.13;3.58;;;;;;;12.23;76.63;99481.78;4991540;28;20492;-78
2023/01/05 00:35:41;;;;;;;19.90;4.15;;;;;;;12.23;77.30;99484.41;4991586;28;20513;-79
2023/01/05 00:38:08;;;;;;;19.38;3.92;;;;;;;12.21;77.25;99481.03;4991640;28;20108;-79
2023/01/05 00:40:35;;;;;;;19.15;4.28;;;;;;;12.19;77.20;99480.28;4991862;28;20054;-79
2023/01/05 00:43:02;;;;;;;18.50;4.07;;;;;;;12.19;77.50;99490.84;4991398;28;20077;-78
2023/01/05 00:45:28;;;;;;;17.50;4.43;;;;;;;12.18;77.60;99484.72;4991377;28;20497;-78
2023/01/05 00:47:55;;;;;;;19.75;4.38;;;;;;;12.17;77.83;99488.31;4973895;28;20429;-79
2023/01/05 00:50:22;;;;;;;21.10;4.40;;;;;;;12.17;77.60;99503.28;4991674;28;20108;-79
2023/01/05 00:52:48;;;;;;;22.17;4.63;;;;;;;12.16;77.65;99493.69;4991322;28;20046;-79
2023/01/05 00:55:15;;;;;;;19.70;3.38;;;;;;;12.17;77.67;99498.00;4991414;28;20070;-78
2023/01/05 00:57:41;;;;;;;21.98;3.97;;;;;;;12.19;77.77;99519.88;4974010;28;20066;-79
2023/01/05 01:00:13;;;;;;;20.23;3.53;;;;;;;12.19;77.16;99506.69;4991268;28;20490;-78
2023/01/05 01:02:39;;;;;;;20.15;4.50;;;;;;;12.20;77.49;99511.88;4991181;28;20054;-78
2023/01/05 01:05:06;;;;;;;21.90;4.00;;;;;;;12.20;77.82;99521.56;4991325;28;20050;-78
2023/01/05 01:07:33;;;;;;;19.42;4.25;;;;;;;12.21;77.74;99510.03;4991331;28;20509;-79
2023/01/05 01:09:59;;;;;;;19.73;4.15;;;;;;;12.20;77.55;99522.41;4991095;28;20046;-78
2023/01/05 01:12:25;;;;;;;22.98;4.18;;;;;;;12.19;77.58;99518.06;4990891;28;20046;-79
2023/01/05 01:14:52;;;;;;;22.40;4.40;;;;;;;12.19;77.45;99527.78;4991303;28;20097;-79
2023/01/05 01:17:18;;;;;;;19.65;4.15;;;;;;;12.18;77.37;99516.38;4990696;28;20109;-78
2023/01/05 01:19:45;;;;;;;25.02;4.75;;;;;;;12.20;77.55;99516.28;4990910;28;20566;-78
2023/01/05 01:22:12;;;;;;;21.40;4.50;;;;;;;12.18;77.44;99510.28;4990815;28;20496;-79
2023/01/05 01:24:39;;;;;;;23.33;4.95;;;;;;;12.18;77.61;99521.66;4973516;28;20120;-79
2023/01/05 01:27:06;;;;;;;23.67;4.78;;;;;;;12.19;77.45;99518.06;4990681;28;20057;-79
2023/01/05 01:29:32;;;;;;;27.65;5.10;;;;;;;12.19;77.50;99518.06;4990722;28;20496;-79
2023/01/05 01:31:59;;;;;;;27.17;4.07;;;;;;;12.19;77.50;99520.69;4990442;28;20081;-79
2023/01/05 01:34:25;;;;;;;22.08;3.70;;;;;;;12.21;77.56;99520.59;4990925;28;20093;-79
2023/01/05 01:36:54;;;;;;;22.02;4.45;;;;;;;12.21;77.27;99518.81;4990472;28;20423;-78
2023/01/05 01:39:21;;;;;;;23.75;4.45;;;;;;;12.22;77.48;99538.97;4990888;28;20058;-78
2023/01/05 01:41:47;;;;;;;21.25;4.15;;;;;;;12.22;77.23;99536.34;4990571;28;20463;-78
2023/01/05 01:44:51;;;;;;;27.02;4.85;;;;;;;12.18;75.29;99531.38;4990644;28;20120;-78
2023/01/05 01:47:38;;;;;;;20.50;3.83;;;;;;;12.19;75.27;99541.81;4973221;28;20047;-78
2023/01/05 01:50:32;;;;;;;23.05;3.83;;;;;;;12.20;75.90;99546.16;4989746;28;20112;-78
2023/01/05 01:53:04;;;;;;;27.45;4.30;;;;;;;12.20;76.64;99553.22;4990708;28;20424;-78
2023/01/05 01:55:31;;;;;;;18.42;3.90;;;;;;;12.20;77.13;99553.22;4957228;28;20171;-79
2023/01/05 01:58:00;;;;;;;17.42;4.32;;;;;;;12.18;77.15;99557.78;4990510;28;20054;-78
2023/01/05 02:00:26;;;;;;;19.10;4.30;;;;;;;12.17;77.18;99564.84;4990412;28;20054;-78
2023/01/05 02:02:54;;;;;;;24.85;4.10;;;;;;;12.15;77.28;99571.16;4989972;28;20046;-78
2023/01/05 02:05:26;;;;;;;26.45;4.07;;;;;;;12.12;76.88;99566.94;4990246;28;20054;-78
2023/01/05 02:07:52;;;;;;;26.40;5.33;;;;;;;12.12;77.23;99566.94;4990301;28;20101;-78
2023/01/05 02:10:41;;;;;;;23.27;4.78;;;;;;;12.05;76.21;99566.50;4990229;28;20082;-78
2023/01/05 02:13:20;;;;;;;23.67;4.45;;;;;;;12.05;76.51;99565.63;4990028;28;20050;-78
2023/01/05 02:16:06;;;;;;;26.00;4.88;;;;;;;12.04;76.83;99556.84;4990673;28;20050;-78
2023/01/05 02:18:48;;;;;;;22.83;4.28;;;;;;;12.01;76.49;99562.34;4990044;28;20493;-79
2023/01/05 02:21:29;;;;;;;21.23;3.78;;;;;;;11.99;76.36;99566.84;4990093;28;20485;-78
2023/01/05 02:24:08;;;;;;;21.90;4.72;;;;;;;12.01;77.72;99564.97;4989973;28;20050;-78
2023/01/05 02:26:46;;;;;;;26.25;3.95;;;;;;;11.97;76.62;99566.13;4989938;28;20050;-78
2023/01/05 02:30:02;;;;;;;26.70;4.40;;;;;;;11.93;76.15;99562.81;4990158;28;20108;-78
2023/01/05 02:32:42;;;;;;;19.48;3.53;;;;;;;11.96;76.55;99572.38;4962034;28;20046;-79
2023/01/05 02:35:40;;;;;;;16.33;3.95;;;;;;;11.92;76.57;99563.78;4989970;28;20054;-78
2023/01/05 02:38:09;;;;;;;18.33;3.78;;;;;;;11.95;77.49;99582.06;4989829;28;20501;-78
2023/01/05 02:40:40;;;;;;;21.15;3.72;;;;;;;11.94;77.28;99584.78;4989775;28;20074;-78
2023/01/05 02:43:09;;;;;;;20.88;3.95;;;;;;;11.93;77.63;99576.03;4989722;28;20086;-78
2023/01/05 02:45:36;;;;;;;18.85;3.53;;;;;;;11.91;77.55;99579.72;4989623;28;20464;-78
2023/01/05 02:48:03;;;;;;;23.27;4.70;;;;;;;11.90;77.87;99573.59;4989822;28;20054;-78
2023/01/05 02:51:02;;;;;;;24.88;4.10;;;;;;;11.85;76.94;99581.81;4989778;28;20050;-78
2023/01/05 02:53:39;;;;;;;19.50;3.55;;;;;;;11.87;77.20;99579.06;4978515;28;20527;-78
2023/01/05 02:56:15;;;;;;;22.50;3.97;;;;;;;11.84;77.30;99577.47;4989718;28;20050;-78
2023/01/05 02:58:50;;;;;;;19.58;4.50;;;;;;;11.84;77.58;99585.41;4989688;28;20104;-78
2023/01/05 03:04:19;;;;;;;17.88;3.38;;;;;;;11.83;77.52;99582.84;5126355;22;20392;-80
2023/01/05 03:06:55;;;;;;;21.88;4.13;;;;;;;11.83;77.54;99583.72;4993988;28;20054;-80
2023/01/05 03:09:26;;;;;;;22.92;4.65;;;;;;;11.82;77.72;99586.44;4994523;28;20054;-81
2023/01/05 03:15:23;;;;;;;19.77;3.85;;;;;;;11.80;77.09;99588.31;4994245;28;20133;-81
2023/01/05 03:17:54;;;;;;;18.10;3.78;;;;;;;11.79;77.64;99586.63;4994133;28;20505;-80
2023/01/05 03:20:26;;;;;;;16.75;3.60;;;;;;;11.76;77.57;99600.88;4994196;28;20117;-80
2023/01/05 03:37:31;;;;;;;20.67;3.85;;;;;;;11.65;77.77;99598.06;4993915;28;20042;-80
2023/01/05 03:40:00;;;;;;;20.75;3.40;;;;;;;11.66;78.23;99610.31;4994023;28;20219;-81
2023/01/05 03:42:29;;;;;;;24.30;4.95;;;;;;;11.63;78.09;99613.16;4993806;28;20055;-81
2023/01/05 03:44:55;;;;;;;20.90;4.00;;;;;;;11.62;78.28;99619.38;4993654;28;20043;-81
2023/01/05 03:47:22;;;;;;;18.73;3.65;;;;;;;11.61;78.37;99615.88;4993386;28;20046;-80
2023/01/05 03:49:50;;;;;;;22.35;3.75;;;;;;;11.59;78.45;99618.59;4993591;28;20142;-81
2023/01/05 03:52:17;;;;;;;19.23;3.40;;;;;;;11.58;78.45;99619.56;4976252;28;20392;-78
2023/01/05 03:54:43;;;;;;;24.73;4.28;;;;;;;11.56;78.49;99608.25;4993654;28;20434;-81
2023/01/05 03:57:10;;;;;;;22.65;4.05;;;;;;;11.57;78.55;99617.00;4993380;28;20042;-80
2023/01/05 03:59:36;;;;;;;16.35;4.18;;;;;;;11.55;78.52;99626.81;4993502;28;20046;-80
2023/01/05 04:02:03;;;;;;;29.85;4.13;;;;;;;11.54;78.49;99615.44;4993251;28;20594;-81
2023/01/05 04:04:30;;;;;;;24.67;5.13;;;;;;;11.54;78.51;99623.34;4993646;28;20057;-81
2023/01/05 04:06:56;;;;;;;28.73;4.78;;;;;;;11.52;78.57;99621.75;4992967;28;20583;-80
2023/01/05 04:09:23;;;;;;;25.80;4.32;;;;;;;11.52;78.51;99613.84;4993309;28;20050;-80
2023/01/05 04:11:49;;;;;;;22.85;4.22;;;;;;;11.51;78.56;99625.31;4975944;28;20582;-80
2023/01/05 04:14:16;;;;;;;31.73;5.80;;;;;;;11.50;78.57;99629.75;4992677;28;20058;-80
2023/01/05 04:16:42;;;;;;;25.10;4.95;;;;;;;11.48;78.74;99626.38;4993121;28;20072;-79
2023/01/05 04:19:09;;;;;;;25.33;4.97;;;;;;;11.48;79.01;99636.91;4993363;28;20058;-81
2023/01/05 04:21:36;;;;;;;20.25;4.25;;;;;;;11.46;78.87;99633.50;4975948;28;20050;-81
2023/01/05 04:24:02;;;;;;;19.48;4.47;;;;;;;11.46;78.93;99638.78;4993362;28;20145;-79
2023/01/05 04:26:29;;;;;;;32.95;5.88;;;;;;;11.45;78.97;99624.75;4992937;28;20140;-80
2023/01/05 04:28:56;;;;;;;33.58;5.50;;;;;;;11.45;78.94;99645.00;4993039;28;20086;-81
2023/01/05 04:31:22;;;;;;;27.10;4.07;;;;;;;11.45;79.14;99637.94;4992901;28;20053;-80
2023/01/05 04:33:49;;;;;;;25.30;4.20;;;;;;;11.45;79.18;99652.91;4992995;28;20057;-78
2023/01/05 04:36:15;;;;;;;22.15;4.60;;;;;;;11.46;79.14;99655.47;4992682;28;20140;-80
2023/01/05 04:38:42;;;;;;;33.53;4.88;;;;;;;11.46;79.13;99658.09;4992783;28;20144;-80
2023/01/05 04:41:08;;;;;;;21.30;4.45;;;;;;;11.47;79.31;99651.88;4992701;28;20137;-80
2023/01/05 04:43:35;;;;;;;23.52;4.72;;;;;;;11.48;79.07;99658.00;4992624;28;20093;-80
2023/01/05 04:46:01;;;;;;;25.33;5.50;;;;;;;11.48;79.36;99658.00;4992532;28;20418;-79
2023/01/05 04:48:30;;;;;;;27.60;4.43;;;;;;;11.49;79.14;99666.72;4992426;28;20050;-81
2023/01/05 04:50:58;;;;;;;27.70;4.75;;;;;;;11.49;79.11;99664.97;4992718;28;20088;-81
2023/01/05 04:53:24;;;;;;;27.90;4.63;;;;;;;11.50;79.15;99669.28;4992480;28;20051;-80
2023/01/05 04:55:51;;;;;;;33.38;5.55;;;;;;;11.50;79.08;99661.38;4992275;28;20073;-80
2023/01/05 04:58:18;;;;;;;19.42;4.18;;;;;;;11.50;78.91;99669.28;4992152;28;20145;-80
2023/01/05 05:00:45;;;;;;;26.23;4.30;;;;;;;11.50;79.13;99664.00;4992308;28;20055;-80
2023/01/05 05:03:11;;;;;;;29.83;4.57;;;;;;;11.49;79.09;99664.97;4992268;28;20519;-82
2023/01/05 05:05:38;;;;;;;22.10;4.85;;;;;;;11.49;79.21;99674.66;4992252;28;20057;-81
2023/01/05 05:08:04;;;;;;;25.40;3.85;;;;;;;11.49;79.13;99677.28;4992076;28;20061;-80
2023/01/05 05:10:31;;;;;;;17.38;4.18;;;;;;;11.49;79.08;99674.66;4992165;28;20499;-79
2023/01/05 05:12:57;;;;;;;26.08;4.70;;;;;;;11.47;79.04;99667.69;4992234;28;20407;-80
2023/01/05 05:15:24;;;;;;;22.13;4.03;;;;;;;11.48;79.27;99679.09;4992112;28;20054;-80
2023/01/05 05:17:50;;;;;;;22.38;4.28;;;;;;;11.46;79.20;99676.53;4992054;28;20137;-81
2023/01/05 05:20:17;;;;;;;19.17;4.35;;;;;;;11.47;79.21;99678.22;4991919;28;20137;-79
2023/01/05 05:22:45;;;;;;;19.23;3.67;;;;;;;11.47;79.38;99691.41;4992038;28;20074;-80
2023/01/05 05:25:11;;;;;;;26.30;4.30;;;;;;;11.47;79.20;99678.22;4991021;28;20060;-80
2023/01/05 05:27:38;;;;;;;20.98;4.00;;;;;;;11.47;79.38;99693.19;4991894;28;20529;-80
2023/01/05 05:30:05;;;;;;;20.80;4.00;;;;;;;11.48;79.41;99687.00;4991968;28;20555;-80
2023/01/05 05:32:31;;;;;;;18.50;4.57;;;;;;;11.49;79.32;99686.03;4991865;28;20060;-80
2023/01/05 05:34:58;;;;;;;23.88;3.95;;;;;;;11.50;79.52;99676.31;4974291;28;20513;-79
2023/01/05 05:37:24;;;;;;;19.92;3.97;;;;;;;11.51;79.45;99683.31;4991963;28;20062;-80
2023/01/05 05:39:51;;;;;;;18.00;3.33;;;;;;;11.51;79.42;99684.16;4991699;28;20061;-81
2023/01/05 05:42:17;;;;;;;23.88;3.88;;;;;;;11.52;79.29;99695.53;4991576;28;20093;-80
2023/01/05 05:44:44;;;;;;;27.27;4.25;;;;;;;11.53;79.40;99692.81;4991714;28;20042;-77
2023/01/05 05:47:10;;;;;;;27.27;4.82;;;;;;;11.53;79.36;99692.81;4991536;28;20050;-79
2023/01/05 05:49:37;;;;;;;24.52;4.30;;;;;;;11.54;79.57;99694.50;4991458;28;20050;-80
2023/01/05 05:52:03;;;;;;;23.88;4.18;;;;;;;11.54;79.15;99697.16;4974118;28;20054;-80
2023/01/05 05:54:30;;;;;;;24.23;4.85;;;;;;;11.56;79.28;99703.16;4991306;28;20054;-81
2023/01/05 05:56:57;;;;;;;19.80;5.22;;;;;;;11.57;79.35;99704.00;4991364;28;20594;-81
2023/01/05 05:59:23;;;;;;;24.63;5.03;;;;;;;11.57;79.17;99701.38;4991468;28;20066;-80
2023/01/05 06:01:51;;;;;;;20.48;3.97;;;;;;;11.59;79.16;99710.06;4991492;28;20047;-81
2023/01/05 06:04:18;;;;;;;23.92;4.60;;;;;;;11.58;79.22;99717.09;4991187;28;20050;-79
2023/01/05 06:06:44;;;;;;;25.70;4.20;;;;;;;11.59;79.16;99713.50;4991006;28;20455;-80
2023/01/05 06:09:11;;;;;;;19.63;4.05;;;;;;;11.59;79.26;99724.06;4991331;28;20468;-81
2023/01/05 06:11:37;;;;;;;20.33;4.05;;;;;;;11.59;79.07;99718.78;4974085;28;20042;-80
2023/01/05 06:14:05;;;;;;;23.13;4.15;;;;;;;11.59;79.12;99731.16;4991360;28;20054;-80
2023/01/05 06:16:32;;;;;;;17.50;4.15;;;;;;;11.59;79.42;99728.50;4973931;28;20060;-77
2023/01/05 06:18:59;;;;;;;14.60;3.60;;;;;;;11.57;79.31;99731.22;4991121;28;20443;-80
2023/01/05 06:21:26;;;;;;;16.05;3.50;;;;;;;11.56;79.41;99742.69;4991104;28;20097;-81
2023/01/05 06:23:52;;;;;;;12.65;2.85;;;;;;;11.55;79.19;99741.00;4991011;28;20137;-79
2023/01/05 06:26:19;;;;;;;12.75;3.08;;;;;;;11.54;79.28;99734.06;4991055;28;20050;-80
2023/01/05 06:28:45;;;;;;;15.63;3.92;;;;;;;11.53;79.18;99747.31;4973679;28;20065;-80
2023/01/05 06:31:12;;;;;;;15.38;4.15;;;;;;;11.52;79.51;99746.50;4991144;28;20149;-80
2023/01/05 06:33:39;;;;;;;21.77;4.60;;;;;;;11.53;79.42;99757.88;4990919;28;20046;-79
2023/01/05 06:36:06;;;;;;;21.75;4.90;;;;;;;11.51;79.57;99757.94;4974109;28;20058;-80
2023/01/05 06:38:32;;;;;;;23.35;4.50;;;;;;;11.51;79.44;99763.22;4995109;28;20411;-81
2023/01/05 06:40:59;;;;;;;23.77;3.92;;;;;;;11.51;79.54;99770.31;4995061;28;20054;-79
2023/01/05 06:43:26;;;;;;;18.77;4.20;;;;;;;11.50;79.56;99766.81;4994981;28;20057;-81
2023/01/05 06:45:52;;;;;;;18.88;4.78;;;;;;;11.49;79.65;99770.41;4994731;28;20054;-79
2023/01/05 06:48:19;;;;;;;21.70;4.25;;;;;;;11.49;79.56;99774.81;4994698;28;20046;-81
2023/01/05 06:50:45;;;;;;;18.40;3.33;;;;;;;11.50;79.56;99780.00;4994677;28;20124;-80
2023/01/05 06:53:13;;;;;;;20.38;3.88;;;;;;;11.51;79.80;99780.84;4994802;28;20143;-82
2023/01/05 06:55:39;;;;;;;21.02;3.72;;;;;;;11.49;79.78;99786.22;4994790;28;20092;-81
2023/01/05 06:58:06;;;;;;;21.48;3.92;;;;;;;11.51;79.76;99788.75;4994782;28;20101;-78
2023/01/05 07:00:33;;;;;;;23.98;3.80;;;;;;;11.51;79.46;99791.41;4994681;28;20050;-81
2023/01/05 07:02:59;;;;;;;22.67;4.22;;;;;;;11.51;79.76;99791.41;4994587;28;20050;-80
2023/01/05 07:05:26;;;;;;;31.48;4.35;;;;;;;11.51;79.64;99786.94;4994358;28;20056;-81
2023/01/05 07:07:53;;;;;;;19.02;3.55;;;;;;;11.52;79.74;99795.72;4994479;28;20090;-77
2023/01/05 07:10:19;;;;;;;15.30;3.80;;;;;;;11.51;79.67;99800.13;4977000;28;20056;-78
2023/01/05 07:12:46;;;;;;;21.95;4.80;;;;;;;11.52;79.81;99793.94;4977035;28;20047;-78
2023/01/05 07:15:13;;;;;;;18.17;4.28;;;;;;;11.53;79.70;99803.53;4977128;28;20225;-79
2023/01/05 07:17:39;;;;;;;21.20;4.45;;;;;;;11.52;79.41;99807.13;4976786;28;20053;-79
2023/01/05 07:20:06;;;;;;;22.58;5.43;;;;;;;11.53;79.62;99814.09;4994189;28;20054;-79
2023/01/05 07:22:33;;;;;;;19.98;5.00;;;;;;;11.54;79.78;99817.53;4976761;28;20722;-79
2023/01/05 07:25:00;;;;;;;23.23;5.22;;;;;;;11.55;79.78;99820.09;4976768;28;20076;-79
2023/01/05 07:27:26;;;;;;;21.05;4.45;;;;;;;11.55;79.78;99829.81;4976840;28;20050;-79
2023/01/05 07:29:53;;;;;;;20.00;3.92;;;;;;;11.57;79.66;99822.66;4994055;28;20046;-79
2023/01/05 07:32:19;;;;;;;18.67;3.47;;;;;;;11.58;79.82;99819.91;4993956;28;20050;-81
2023/01/05 07:34:46;;;;;;;22.73;4.72;;;;;;;11.57;79.88;99831.41;4993946;28;20157;-78
2023/01/05 07:37:23;;;;;;;19.27;4.40;;;;;;;11.58;79.56;99827.84;4993958;28;20046;-80
2023/01/05 07:39:50;;;;;;;20.63;4.05;;;;;;;11.59;79.69;99829.53;4994096;28;20057;-78
2023/01/05 07:42:17;;;;;;;25.55;4.38;;;;;;;11.60;79.49;99836.47;4993805;28;20054;-79
2023/01/05 07:44:44;;;;;;;20.25;4.50;;;;;;;11.60;79.47;99830.38;4993716;28;20054;-79
2023/01/05 07:47:10;;;;;;;19.60;3.58;;;;;;;11.58;79.52;99833.09;4993571;28;20061;-78
2023/01/05 07:49:37;;;;;;;16.35;3.97;;;;;;;11.59;79.68;99836.59;4993026;28;20066;-80
2023/01/05 07:52:04;;;;;;;22.33;4.53;;;;;;;11.60;79.74;99848.84;4993750;28;20050;-79
2023/01/05 07:54:30;;;;;;;20.60;4.75;;;;;;;11.61;79.73;99853.16;4993581;28;20181;-79
2023/01/05 07:56:57;;;;;;;21.85;4.38;;;;;;;11.63;79.79;99855.72;4993149;28;20042;-80
2023/01/05 07:59:23;;;;;;;23.23;4.18;;;;;;;11.63;79.60;99853.94;4976082;28;20073;-79
2023/01/05 08:01:50;;;;;;;20.38;4.60;;;;;;;11.65;79.53;99856.44;4993558;28;20129;-79
2023/01/05 08:04:17;;;;;;;19.15;4.25;;;;;;;11.65;79.64;99867.84;4993535;28;20051;-79
2023/01/05 08:06:43;;;;;;;18.45;3.97;;;;;;;11.65;79.67;99856.44;4993203;28;20047;-81
2023/01/05 08:11:55;;;;;;;22.15;4.35;;;;;;;11.67;79.47;99870.41;4993141;28;20411;-79
2023/01/05 08:14:22;;;;;;;17.45;3.65;;;;;;;11.67;79.57;99870.41;4993087;28;20086;-80
2023/01/05 08:16:48;;;;;;;22.08;3.83;;;;;;;11.67;79.67;99878.31;4992950;28;20051;-79
2023/01/05 08:19:15;;;;;;;20.42;3.55;;;;;;;11.68;79.71;99880.00;4993072;28;20147;-79
2023/01/05 08:21:41;;;;;;;18.08;4.00;;;;;;;11.68;79.53;99885.28;4975657;28;20053;-81
2023/01/05 08:24:08;;;;;;;22.25;4.55;;;;;;;11.68;79.48;99891.41;4975830;28;20057;-80
2023/01/05 08:26:34;;;;;;;19.05;4.47;;;;;;;11.68;79.58;99899.31;4975184;28;20482;-79
2023/01/05 08:29:01;;;;;;;19.38;3.58;;;;;;;11.68;79.87;99893.19;4993134;28;20046;-80
2023/01/05 08:31:30;;;;;;;15.68;3.70;;;;;;;11.69;79.34;99902.78;4992983;28;20085;-79
2023/01/05 08:33:58;;;;;;;26.25;4.50;;;;;;;11.69;79.47;99908.06;4992920;28;20104;-79
2023/01/05 08:36:26;;;;;;;24.45;5.22;;;;;;;11.70;79.50;99907.97;4992585;28;20568;-79
2023/01/05 08:38:53;;;;;;;18.25;4.50;;;;;;;11.70;79.52;99907.16;4992737;28;20078;-79
2023/01/05 08:41:26;;;;;;;24.92;4.80;;;;;;;11.69;79.19;99913.34;4992600;28;20100;-79
2023/01/05 08:43:55;;;;;;;22.30;4.00;;;;;;;11.70;79.48;99915.88;4992980;28;20057;-79
2023/01/05 08:46:24;;;;;;;21.58;3.88;;;;;;;11.72;79.39;99923.72;4992543;28;20054;-78
2023/01/05 08:48:54;;;;;;;25.45;4.97;;;;;;;11.71;79.32;99922.84;4992464;28;20054;-79
2023/01/05 08:51:21;;;;;;;19.58;3.13;;;;;;;11.73;79.62;99928.03;4975208;28;20050;-79
2023/01/05 08:53:48;;;;;;;26.10;4.95;;;;;;;11.74;79.68;99932.41;4992502;28;20047;-78
2023/01/05 08:56:15;;;;;;;24.42;4.45;;;;;;;11.75;79.55;99933.22;4975150;28;20133;-79
2023/01/05 08:58:41;;;;;;;20.40;3.70;;;;;;;11.75;79.59;99941.13;4992356;28;20050;-79
2023/01/05 09:01:10;;;;;;;20.42;4.43;;;;;;;11.75;79.62;99952.53;4992329;28;20598;-79
2023/01/05 12:11:35;;;;;;;10.00;3.10;;;;;;;12.08;78.56;100101.06;5771337;23;20045;-80
2023/01/05 12:14:20;;;;;;;17.05;3.60;;;;;;;12.07;78.32;100102.84;5010253;28;20042;-79
2023/01/05 12:16:53;;;;;;;18.13;3.78;;;;;;;12.09;79.11;100098.34;4990938;28;20054;-80
2023/01/05 12:19:46;;;;;;;;;;;;;;;12.10;77.82;100097.41;4994722;28;20111;-79
2023/01/05 12:22:12;;;;;;;9.90;2.90;;;;;;;12.15;78.88;100099.75;4989409;28;19921;-80
2023/01/05 12:24:41;;;;;;;12.45;2.95;;;;;;;12.12;78.86;100095.50;5011765;28;20436;-79
2023/01/05 12:27:49;;;;;;;15.70;3.30;;;;;;;12.05;77.46;100094.19;4993145;28;20062;-80
2023/01/05 12:30:44;;;;;;;18.33;2.80;;;;;;;12.03;77.49;100096.00;5012155;28;20057;-80
2023/01/05 12:33:46;;;;;;;15.15;3.67;;;;;;;12.08;79.08;100107.16;5011581;28;20045;-79
2023/01/05 12:36:40;;;;;;;13.65;3.55;;;;;;;12.03;77.62;100106.56;5011006;28;20057;-80
2023/01/05 12:39:38;;;;;;;13.00;3.25;;;;;;;12.01;78.06;100107.59;5007053;28;20045;-79
2023/01/05 12:42:37;;;;;;;13.57;3.10;;;;;;;12.01;77.71;100118.13;5004232;28;20061;-79
2023/01/05 12:45:40;;;;;;;11.55;3.40;;;;;;;12.01;78.16;100108.44;5001990;28;20053;-79
2023/01/05 12:48:13;;;;;;;17.00;3.40;;;;;;;12.06;79.20;100118.75;4999229;28;20531;-79
2023/01/05 12:50:43;;;;;;;13.10;3.90;;;;;;;12.06;79.13;100119.63;5008398;28;20061;-79
2023/01/05 12:53:31;;;;;;;16.52;3.20;;;;;;;12.05;78.32;100120.56;5011601;28;20448;-79
2023/01/05 12:56:06;;;;;;;15.38;3.95;;;;;;;12.11;78.76;100124.59;4997532;28;20046;-80
2023/01/05 12:58:42;;;;;;;16.38;3.95;;;;;;;12.11;78.27;100125.47;5011317;28;20081;-79
2023/01/05 13:01:18;;;;;;;19.17;4.18;;;;;;;12.11;78.54;100125.47;5011524;28;20049;-79
2023/01/05 13:03:56;;;;;;;19.83;4.32;;;;;;;12.14;78.31;100128.88;4994246;28;20180;-79
2023/01/05 13:06:25;;;;;;;18.35;4.05;;;;;;;12.18;79.35;100123.31;5008528;28;20050;-80
2023/01/05 13:09:12;;;;;;;12.57;3.92;;;;;;;12.17;78.84;100124.28;5005940;28;20460;-80
2023/01/05 13:11:48;;;;;;;17.33;4.50;;;;;;;12.18;78.21;100125.13;5009602;28;20072;-79
2023/01/05 13:14:19;;;;;;;13.93;4.07;;;;;;;12.20;78.77;100126.75;4993352;28;20045;-79
2023/01/05 13:17:00;;;;;;;17.00;4.88;;;;;;;12.15;77.82;100118.22;5010911;28;20324;-79
2023/01/05 13:19:45;;;;;;;23.48;4.88;;;;;;;12.14;78.08;100126.25;5007533;28;20471;-79
2023/01/05 13:22:31;;;;;;;19.27;4.93;;;;;;;12.12;77.99;100132.44;5011173;28;20055;-79
2023/01/05 13:25:13;;;;;;;22.35;4.88;;;;;;;12.15;78.41;100138.50;5010842;28;20515;-80
2023/01/05 13:27:41;;;;;;;19.63;5.20;;;;;;;12.15;79.18;100134.06;5009655;28;20061;-79
2023/01/05 13:30:20;;;;;;;17.40;4.95;;;;;;;12.12;78.63;100136.88;4991695;28;20508;-79
2023/01/05 13:32:58;;;;;;;23.80;5.03;;;;;;;12.12;78.59;100143.00;5008265;28;20049;-79
2023/01/05 13:35:32;;;;;;;18.00;4.97;;;;;;;12.12;78.56;100142.16;4990029;28;20082;-79
2023/01/05 13:38:05;;;;;;;19.23;5.07;;;;;;;12.11;78.66;100151.84;4987678;28;20512;-79
2023/01/05 13:40:50;;;;;;;18.90;5.10;;;;;;;12.12;78.53;100152.72;5009577;28;20119;-80
2023/01/05 13:43:25;;;;;;;23.60;5.32;;;;;;;12.11;77.96;100151.84;5007100;28;20053;-79
2023/01/05 13:45:54;;;;;;;24.50;5.63;;;;;;;12.17;79.14;100155.09;5003000;28;20054;-79
2023/01/05 13:48:27;;;;;;;22.15;5.85;;;;;;;12.14;78.89;100155.28;5010447;28;20053;-80
2023/01/05 13:51:48;;;;;;;16.40;5.32;;;;;;;12.11;78.05;100153.63;5010522;28;20562;-79
2023/01/05 13:54:36;;;;;;;19.88;5.72;;;;;;;12.11;77.89;100156.28;5010714;28;20097;-79
2023/01/05 13:57:24;;;;;;;16.75;5.63;;;;;;;12.13;78.65;100162.34;4989261;28;20058;-80
2023/01/05 13:59:56;;;;;;;24.48;6.60;;;;;;;12.17;78.95;100165.63;4989877;28;20046;-79
2023/01/05 14:02:40;;;;;;;20.90;5.68;;;;;;;12.16;79.00;100158.66;5002394;28;20061;-80
2023/01/05 14:05:24;;;;;;;20.73;5.93;;;;;;;12.14;78.28;100163.19;5001829;28;20050;-80
2023/01/05 14:07:54;;;;;;;16.65;5.03;;;;;;;12.17;79.18;100161.22;5010079;28;20140;-79
2023/01/05 14:10:27;;;;;;;25.60;6.07;;;;;;;12.14;78.38;100161.38;5010339;28;20523;-80
2023/01/05 14:12:54;;;;;;;23.75;6.13;;;;;;;12.18;79.04;100167.34;5004241;28;20053;-80
2023/01/05 14:15:33;;;;;;;21.33;6.05;;;;;;;12.14;77.92;100165.84;5010215;28;20054;-80
2023/01/05 14:18:01;;;;;;;22.67;6.05;;;;;;;12.14;78.91;100166.66;5009622;28;20056;-80
2023/01/05 14:20:30;;;;;;;24.52;6.32;;;;;;;12.14;79.21;100171.94;5010549;28;20058;-80
2023/01/05 14:22:58;;;;;;;26.08;5.30;;;;;;;12.11;78.96;100166.84;5010407;28;20304;-80
2023/01/05 14:25:39;;;;;;;24.60;6.05;;;;;;;12.06;77.73;100169.75;5010276;28;20053;-80
2023/01/05 14:28:28;;;;;;;24.17;5.68;;;;;;;12.06;77.66;100172.38;5010416;28;20131;-80
2023/01/05 14:31:09;;;;;;;19.88;5.53;;;;;;;12.05;77.79;100173.34;5010720;28;20049;-80
2023/01/05 14:34:06;;;;;;;24.75;5.80;;;;;;;12.05;77.50;100180.34;5010547;28;20097;-80
2023/01/05 14:36:42;;;;;;;18.25;5.28;;;;;;;12.06;78.60;100177.66;5010282;28;20104;-79
2023/01/05 14:39:11;;;;;;;27.27;6.22;;;;;;;12.05;78.19;100177.72;5010746;28;20452;-80
2023/01/05 14:41:39;;;;;;;20.63;5.47;;;;;;;12.04;78.80;100176.84;5010560;28;20045;-80
2023/01/05 14:44:20;;;;;;;24.60;5.18;;;;;;;12.00;78.05;100185.88;5010468;28;20054;-80
2023/01/05 14:46:55;;;;;;;21.73;5.80;;;;;;;12.01;78.51;100181.47;5010121;28;20427;-80
2023/01/05 14:49:38;;;;;;;21.67;5.40;;;;;;;12.00;77.72;100191.16;5010321;28;20826;-80
2023/01/05 14:52:13;;;;;;;27.85;5.80;;;;;;;12.04;78.73;100186.56;5009619;28;20049;-80
2023/01/05 14:54:39;;;;;;;26.05;5.30;;;;;;;12.03;78.90;100185.72;5006611;28;20057;-80
2023/01/05 14:57:24;;;;;;;18.67;5.30;;;;;;;11.97;77.72;100192.19;5002777;28;20041;-80
2023/01/05 14:59:59;;;;;;;21.33;5.65;;;;;;;12.00;78.31;100199.06;5013847;28;20144;-80
2023/01/05 15:02:31;;;;;;;25.17;6.15;;;;;;;12.00;78.32;100188.50;5014035;28;20062;-80
2023/01/05 15:05:09;;;;;;;23.48;5.10;;;;;;;11.98;78.01;100187.75;5003528;28;20077;-80
2023/01/05 15:08:02;;;;;;;25.98;5.38;;;;;;;11.97;77.87;100191.34;5013876;28;20054;-80
2023/01/05 15:10:59;;;;;;;23.02;5.65;;;;;;;11.95;77.55;100199.34;5013990;28;20054;-80
2023/01/05 15:17:06;;;;;;;32.20;5.93;;;;;;;11.94;77.85;100196.78;5012052;28;20053;-80
2023/01/05 15:19:54;;;;;;;23.55;5.35;;;;;;;11.95;78.44;100191.44;5009730;28;20501;-80
2023/01/05 15:22:37;;;;;;;24.85;5.78;;;;;;;11.95;79.17;100194.06;5005549;28;20054;-80
2023/01/05 15:25:19;;;;;;;26.60;5.50;;;;;;;11.90;77.94;100189.97;5003001;28;20483;-79
2023/01/05 15:28:23;;;;;;;21.67;5.32;;;;;;;11.86;77.70;100190.13;5013555;28;20104;-80